sensor_id;sensor_type;location;lat;lon;timestamp;P1;durP1;ratioP1;P2;durP2;ratioP2
16837;SDS011;19510;54.486;9.046;2023-04-06T04:22:41;9.93;;;5.70;;
16837;SDS011;19510;54.486;9.046;2023-04-06T04:25:07;8.73;;;5.47;;
16837;SDS011;19510;54.486;9.046;2023-04-06T04:30:49;6.53;;;4.50;;
16837;SDS011;19510;54.486;9.046;2023-04-06T04:33:17;7.93;;;4.73;;
16837;SDS011;19510;54.486;9.046;2023-04-06T04:35:43;8.63;;;4.87;;
16837;SDS011;19510;54.486;9.046;2023-04-06T04:38:08;10.13;;;5.10;;
16837;SDS011;19510;54.486;9.046;2023-04-06T04:40:34;9.93;;;4.50;;
16837;SDS011;19510;54.486;9.046;2023-04-06T04:43:00;7.73;;;4.27;;
16837;SDS011;19510;54.486;9.046;2023-04-06T04:45:26;9.23;;;5.00;;
16837;SDS011;19510;54.486;9.046;2023-04-06T04:47:51;10.03;;;4.73;;
16837;SDS011;19510;54.486;9.046;2023-04-06T04:50:17;7.40;;;4.67;;
16837;SDS011;19510;54.486;9.046;2023-04-06T04:52:43;8.50;;;4.70;;
16837;SDS011;19510;54.486;9.046;2023-04-06T04:55:12;10.63;;;5.40;;
16837;SDS011;19510;54.486;9.046;2023-04-06T04:57:38;8.17;;;5.40;;
16837;SDS011;19510;54.486;9.046;2023-04-06T05:00:07;7.53;;;4.67;;
16837;SDS011;19510;54.486;9.046;2023-04-06T05:02:35;7.83;;;4.40;;
16837;SDS011;19510;54.486;9.046;2023-04-06T05:05:04;10.20;;;4.77;;
16837;SDS011;19510;54.486;9.046;2023-04-06T05:07:31;6.77;;;4.23;;
16837;SDS011;19510;54.486;9.046;2023-04-06T05:09:58;8.23;;;4.30;;
16837;SDS011;19510;54.486;9.046;2023-04-06T05:12:24;9.77;;;4.90;;
16837;SDS011;19510;54.486;9.046;2023-04-06T05:14:53;9.67;;;4.63;;
16837;SDS011;19510;54.486;9.046;2023-04-06T05:17:19;7.17;;;4.30;;
16837;SDS011;19510;54.486;9.046;2023-04-06T05:19:45;7.87;;;4.43;;
16837;SDS011;19510;54.486;9.046;2023-04-06T05:22:11;7.10;;;4.43;;
16837;SDS011;19510;54.486;9.046;2023-04-06T05:24:39;9.90;;;4.47;;
16837;SDS011;19510;54.486;9.046;2023-04-06T05:27:05;9.57;;;4.37;;
16837;SDS011;19510;54.486;9.046;2023-04-06T05:29:31;8.17;;;4.67;;
16837;SDS011;19510;54.486;9.046;2023-04-06T05:31:57;8.70;;;4.97;;
16837;SDS011;19510;54.486;9.046;2023-04-06T05:34:22;8.93;;;5.03;;
16837;SDS011;19510;54.486;9.046;2023-04-06T05:36:48;8.20;;;4.97;;
16837;SDS011;19510;54.486;9.046;2023-04-06T05:39:14;9.77;;;5.30;;
16837;SDS011;19510;54.486;9.046;2023-04-06T05:41:40;7.73;;;4.83;;
16837;SDS011;19510;54.486;9.046;2023-04-06T05:44:06;6.97;;;4.80;;
16837;SDS011;19510;54.486;9.046;2023-04-06T05:46:32;18.10;;;5.87;;
16837;SDS011;19510;54.486;9.046;2023-04-06T05:48:57;10.00;;;5.17;;
16837;SDS011;19510;54.486;9.046;2023-04-06T05:51:23;9.67;;;5.50;;
16837;SDS011;19510;54.486;9.046;2023-04-06T05:53:50;10.63;;;5.57;;
16837;SDS011;19510;54.486;9.046;2023-04-06T05:56:15;11.33;;;5.50;;
16837;SDS011;19510;54.486;9.046;2023-04-06T05:58:41;10.93;;;5.27;;
16837;SDS011;19510;54.486;9.046;2023-04-06T06:01:09;9.40;;;5.57;;
16837;SDS011;19510;54.486;9.046;2023-04-06T06:03:35;15.80;;;5.80;;
16837;SDS011;19510;54.486;9.046;2023-04-06T06:06:03;9.83;;;5.43;;
16837;SDS011;19510;54.486;9.046;2023-04-06T06:08:30;9.00;;;5.23;;
16837;SDS011;19510;54.486;9.046;2023-04-06T06:10:56;13.43;;;5.60;;
16837;SDS011;19510;54.486;9.046;2023-04-06T06:13:22;11.37;;;5.43;;
16837;SDS011;19510;54.486;9.046;2023-04-06T06:15:48;10.13;;;5.23;;
16837;SDS011;19510;54.486;9.046;2023-04-06T06:18:17;18.33;;;6.10;;
16837;SDS011;19510;54.486;9.046;2023-04-06T06:20:45;11.83;;;6.03;;
16837;SDS011;19510;54.486;9.046;2023-04-06T06:23:11;8.53;;;5.37;;
16837;SDS011;19510;54.486;9.046;2023-04-06T06:25:37;11.10;;;5.00;;
16837;SDS011;19510;54.486;9.046;2023-04-06T06:28:02;14.03;;;5.30;;
16837;SDS011;19510;54.486;9.046;2023-04-06T06:30:28;11.10;;;5.40;;
16837;SDS011;19510;54.486;9.046;2023-04-06T06:32:54;10.77;;;4.83;;
16837;SDS011;19510;54.486;9.046;2023-04-06T06:35:23;8.50;;;4.97;;
16837;SDS011;19510;54.486;9.046;2023-04-06T06:37:49;7.03;;;4.17;;
16837;SDS011;19510;54.486;9.046;2023-04-06T06:40:14;8.93;;;4.27;;
16837;SDS011;19510;54.486;9.046;2023-04-06T06:42:42;9.87;;;4.83;;
16837;SDS011;19510;54.486;9.046;2023-04-06T06:45:08;8.97;;;4.73;;
16837;SDS011;19510;54.486;9.046;2023-04-06T06:47:35;9.97;;;5.40;;
16837;SDS011;19510;54.486;9.046;2023-04-06T06:50:00;12.00;;;5.10;;
16837;SDS011;19510;54.486;9.046;2023-04-06T06:52:29;11.90;;;5.10;;
16837;SDS011;19510;54.486;9.046;2023-04-06T06:54:54;11.17;;;5.07;;
16837;SDS011;19510;54.486;9.046;2023-04-06T06:57:21;11.77;;;5.17;;
16837;SDS011;19510;54.486;9.046;2023-04-06T06:59:47;8.93;;;5.30;;
16837;SDS011;19510;54.486;9.046;2023-04-06T07:02:13;9.77;;;5.13;;
16837;SDS011;19510;54.486;9.046;2023-04-06T07:04:38;8.53;;;5.07;;
16837;SDS011;19510;54.486;9.046;2023-04-06T07:07:04;9.10;;;4.80;;
16837;SDS011;19510;54.486;9.046;2023-04-06T07:09:30;10.43;;;4.90;;
16837;SDS011;19510;54.486;9.046;2023-04-06T07:11:56;12.70;;;6.30;;
16837;SDS011;19510;54.486;9.046;2023-04-06T07:14:22;11.27;;;6.17;;
16837;SDS011;19510;54.486;9.046;2023-04-06T07:16:48;13.73;;;6.07;;
16837;SDS011;19510;54.486;9.046;2023-04-06T07:19:15;15.67;;;6.40;;
16837;SDS011;19510;54.486;9.046;2023-04-06T07:21:40;13.53;;;6.20;;
16837;SDS011;19510;54.486;9.046;2023-04-06T07:24:06;12.27;;;5.53;;
16837;SDS011;19510;54.486;9.046;2023-04-06T07:26:32;12.00;;;6.33;;
16837;SDS011;19510;54.486;9.046;2023-04-06T07:28:58;10.90;;;5.70;;
16837;SDS011;19510;54.486;9.046;2023-04-06T07:31:24;10.90;;;5.73;;
16837;SDS011;19510;54.486;9.046;2023-04-06T07:33:51;10.80;;;6.40;;
16837;SDS011;19510;54.486;9.046;2023-04-06T07:36:17;9.33;;;5.67;;
16837;SDS011;19510;54.486;9.046;2023-04-06T07:38:43;8.53;;;5.57;;
16837;SDS011;19510;54.486;9.046;2023-04-06T07:41:11;10.53;;;5.97;;
16837;SDS011;19510;54.486;9.046;2023-04-06T07:43:36;9.93;;;5.80;;
16837;SDS011;19510;54.486;9.046;2023-04-06T07:46:03;14.80;;;6.87;;
16837;SDS011;19510;54.486;9.046;2023-04-06T07:48:29;9.13;;;5.50;;
16837;SDS011;19510;54.486;9.046;2023-04-06T07:51:01;12.60;;;6.40;;
16837;SDS011;19510;54.486;9.046;2023-04-06T07:53:27;16.23;;;6.60;;
16837;SDS011;19510;54.486;9.046;2023-04-06T07:55:55;14.03;;;6.70;;
16837;SDS011;19510;54.486;9.046;2023-04-06T07:58:23;13.83;;;6.33;;
16837;SDS011;19510;54.486;9.046;2023-04-06T08:00:49;11.80;;;6.50;;
16837;SDS011;19510;54.486;9.046;2023-04-06T08:03:17;12.27;;;6.30;;
16837;SDS011;19510;54.486;9.046;2023-04-06T08:05:45;13.30;;;6.67;;
16837;SDS011;19510;54.486;9.046;2023-04-06T08:08:11;12.70;;;6.90;;
16837;SDS011;19510;54.486;9.046;2023-04-06T08:10:37;11.03;;;5.83;;
16837;SDS011;19510;54.486;9.046;2023-04-06T08:13:05;13.10;;;5.57;;
16837;SDS011;19510;54.486;9.046;2023-04-06T08:15:35;14.57;;;6.20;;
16837;SDS011;19510;54.486;9.046;2023-04-06T08:18:01;10.40;;;6.07;;
16837;SDS011;19510;54.486;9.046;2023-04-06T08:20:27;13.63;;;6.67;;
16837;SDS011;19510;54.486;9.046;2023-04-06T08:22:53;15.63;;;6.40;;
16837;SDS011;19510;54.486;9.046;2023-04-06T08:25:19;10.17;;;6.10;;
16837;SDS011;19510;54.486;9.046;2023-04-06T08:27:45;9.97;;;5.67;;
16837;SDS011;19510;54.486;9.046;2023-04-06T08:30:10;14.70;;;6.10;;
16837;SDS011;19510;54.486;9.046;2023-04-06T08:32:39;8.40;;;5.30;;
16837;SDS011;19510;54.486;9.046;2023-04-06T08:35:06;8.23;;;5.10;;
16837;SDS011;19510;54.486;9.046;2023-04-06T08:37:32;10.93;;;5.23;;
16837;SDS011;19510;54.486;9.046;2023-04-06T08:39:58;12.87;;;5.73;;
16837;SDS011;19510;54.486;9.046;2023-04-06T08:42:27;11.27;;;5.70;;
16837;SDS011;19510;54.486;9.046;2023-04-06T08:44:56;10.93;;;6.23;;
16837;SDS011;19510;54.486;9.046;2023-04-06T08:47:22;11.10;;;6.77;;
16837;SDS011;19510;54.486;9.046;2023-04-06T08:49:48;9.33;;;5.23;;
16837;SDS011;19510;54.486;9.046;2023-04-06T08:52:15;10.70;;;5.80;;
16837;SDS011;19510;54.486;9.046;2023-04-06T08:54:44;11.90;;;5.90;;
16837;SDS011;19510;54.486;9.046;2023-04-06T08:57:09;10.67;;;6.07;;
16837;SDS011;19510;54.486;9.046;2023-04-06T08:59:37;11.53;;;6.03;;
16837;SDS011;19510;54.486;9.046;2023-04-06T09:02:04;11.93;;;7.47;;
16837;SDS011;19510;54.486;9.046;2023-04-06T09:04:34;10.10;;;5.87;;
16837;SDS011;19510;54.486;9.046;2023-04-06T09:07:01;9.33;;;5.87;;
16837;SDS011;19510;54.486;9.046;2023-04-06T09:09:27;10.67;;;5.60;;
16837;SDS011;19510;54.486;9.046;2023-04-06T09:11:53;10.43;;;5.47;;
16837;SDS011;19510;54.486;9.046;2023-04-06T09:14:34;10.27;;;5.87;;
16837;SDS011;19510;54.486;9.046;2023-04-06T09:17:03;7.87;;;5.07;;
16837;SDS011;19510;54.486;9.046;2023-04-06T09:19:30;10.90;;;5.17;;
16837;SDS011;19510;54.486;9.046;2023-04-06T09:22:05;7.17;;;4.53;;
16837;SDS011;19510;54.486;9.046;2023-04-06T09:24:42;10.37;;;5.27;;
16837;SDS011;19510;54.486;9.046;2023-04-06T09:27:14;6.90;;;4.90;;
16837;SDS011;19510;54.486;9.046;2023-04-06T09:29:41;10.23;;;4.97;;
16837;SDS011;19510;54.486;9.046;2023-04-06T09:32:07;10.93;;;4.93;;
16837;SDS011;19510;54.486;9.046;2023-04-06T09:34:41;10.60;;;4.97;;
16837;SDS011;19510;54.486;9.046;2023-04-06T09:37:14;8.50;;;4.50;;
16837;SDS011;19510;54.486;9.046;2023-04-06T09:39:41;8.00;;;4.90;;
16837;SDS011;19510;54.486;9.046;2023-04-06T09:42:07;8.67;;;5.03;;
16837;SDS011;19510;54.486;9.046;2023-04-06T09:44:32;17.97;;;6.47;;
16837;SDS011;19510;54.486;9.046;2023-04-06T09:46:58;10.00;;;5.37;;
16837;SDS011;19510;54.486;9.046;2023-04-06T09:49:24;10.37;;;4.63;;
16837;SDS011;19510;54.486;9.046;2023-04-06T09:51:58;6.72;;;4.10;;
16837;SDS011;19510;54.486;9.046;2023-04-06T09:54:30;6.37;;;4.00;;
16837;SDS011;19510;54.486;9.046;2023-04-06T09:57:07;8.20;;;4.33;;
16837;SDS011;19510;54.486;9.046;2023-04-06T10:02:35;7.47;;;4.50;;
16837;SDS011;19510;54.486;9.046;2023-04-06T10:05:27;7.85;;;4.25;;
16837;SDS011;19510;54.486;9.046;2023-04-06T10:11:24;6.95;;;4.10;;
16837;SDS011;19510;54.486;9.046;2023-04-06T10:13:50;7.53;;;4.20;;
16837;SDS011;19510;54.486;9.046;2023-04-06T10:16:18;7.05;;;3.92;;
16837;SDS011;19510;54.486;9.046;2023-04-06T10:18:46;5.30;;;3.33;;
16837;SDS011;19510;54.486;9.046;2023-04-06T10:21:16;5.45;;;3.20;;
16837;SDS011;19510;54.486;9.046;2023-04-06T10:23:51;3.63;;;2.63;;
16837;SDS011;19510;54.486;9.046;2023-04-06T10:26:21;9.63;;;3.05;;
16837;SDS011;19510;54.486;9.046;2023-04-06T10:28:49;5.30;;;3.00;;
16837;SDS011;19510;54.486;9.046;2023-04-06T10:31:15;6.47;;;3.00;;
16837;SDS011;19510;54.486;9.046;2023-04-06T10:33:56;4.38;;;3.47;;
16837;SDS011;19510;54.486;9.046;2023-04-06T10:36:33;6.20;;;2.90;;
16837;SDS011;19510;54.486;9.046;2023-04-06T10:39:00;6.28;;;2.92;;
16837;SDS011;19510;54.486;9.046;2023-04-06T10:41:32;6.07;;;2.92;;
16837;SDS011;19510;54.486;9.046;2023-04-06T10:44:23;4.45;;;2.55;;
16837;SDS011;19510;54.486;9.046;2023-04-06T10:46:53;3.97;;;2.90;;
16837;SDS011;19510;54.486;9.046;2023-04-06T10:49:22;4.53;;;2.70;;
16837;SDS011;19510;54.486;9.046;2023-04-06T10:51:53;7.05;;;3.08;;
16837;SDS011;19510;54.486;9.046;2023-04-06T10:54:21;8.95;;;2.80;;
16837;SDS011;19510;54.486;9.046;2023-04-06T10:56:48;3.50;;;2.50;;
16837;SDS011;19510;54.486;9.046;2023-04-06T10:59:18;9.20;;;3.45;;
16837;SDS011;19510;54.486;9.046;2023-04-06T11:01:51;3.95;;;2.75;;
16837;SDS011;19510;54.486;9.046;2023-04-06T11:04:20;4.05;;;2.78;;
16837;SDS011;19510;54.486;9.046;2023-04-06T11:06:47;4.60;;;2.95;;
16837;SDS011;19510;54.486;9.046;2023-04-06T11:09:29;3.90;;;2.80;;
16837;SDS011;19510;54.486;9.046;2023-04-06T11:11:56;8.40;;;3.22;;
16837;SDS011;19510;54.486;9.046;2023-04-06T11:14:22;8.43;;;3.00;;
16837;SDS011;19510;54.486;9.046;2023-04-06T11:16:48;5.13;;;3.20;;
16837;SDS011;19510;54.486;9.046;2023-04-06T11:19:17;4.32;;;2.47;;
16837;SDS011;19510;54.486;9.046;2023-04-06T11:21:47;5.18;;;2.63;;
16837;SDS011;19510;54.486;9.046;2023-04-06T11:24:15;5.38;;;2.63;;
16837;SDS011;19510;54.486;9.046;2023-04-06T11:29:21;3.80;;;2.50;;
16837;SDS011;19510;54.486;9.046;2023-04-06T11:31:58;4.22;;;3.13;;
16837;SDS011;19510;54.486;9.046;2023-04-06T11:34:25;6.38;;;3.90;;
16837;SDS011;19510;54.486;9.046;2023-04-06T11:37:00;6.97;;;4.00;;
16837;SDS011;19510;54.486;9.046;2023-04-06T11:39:28;5.85;;;4.20;;
16837;SDS011;19510;54.486;9.046;2023-04-06T11:41:58;7.10;;;4.20;;
16837;SDS011;19510;54.486;9.046;2023-04-06T11:44:29;6.55;;;4.22;;
16837;SDS011;19510;54.486;9.046;2023-04-06T11:47:00;6.63;;;4.40;;
16837;SDS011;19510;54.486;9.046;2023-04-06T11:49:30;7.85;;;4.30;;
16837;SDS011;19510;54.486;9.046;2023-04-06T11:51:57;7.05;;;4.22;;
16837;SDS011;19510;54.486;9.046;2023-04-06T12:01:08;8.48;;;4.05;;
16837;SDS011;19510;54.486;9.046;2023-04-06T12:03:34;12.45;;;5.18;;
16837;SDS011;19510;54.486;9.046;2023-04-06T12:05:59;8.45;;;4.53;;
16837;SDS011;19510;54.486;9.046;2023-04-06T12:08:25;7.63;;;4.68;;
16837;SDS011;19510;54.486;9.046;2023-04-06T12:10:51;9.90;;;4.53;;
16837;SDS011;19510;54.486;9.046;2023-04-06T12:20:00;9.30;;;5.00;;
16837;SDS011;19510;54.486;9.046;2023-04-06T12:22:27;9.32;;;6.10;;
16837;SDS011;19510;54.486;9.046;2023-04-06T12:24:53;7.47;;;5.30;;
16837;SDS011;19510;54.486;9.046;2023-04-06T12:27:19;9.75;;;5.30;;
16837;SDS011;19510;54.486;9.046;2023-04-06T12:29:47;13.02;;;5.57;;
16837;SDS011;19510;54.486;9.046;2023-04-06T12:32:13;10.20;;;7.15;;
16837;SDS011;19510;54.486;9.046;2023-04-06T12:34:41;8.80;;;6.20;;
16837;SDS011;19510;54.486;9.046;2023-04-06T12:37:09;11.55;;;6.40;;
16837;SDS011;19510;54.486;9.046;2023-04-06T12:39:37;10.05;;;6.22;;
16837;SDS011;19510;54.486;9.046;2023-04-06T12:42:05;14.00;;;6.82;;
16837;SDS011;19510;54.486;9.046;2023-04-06T12:44:31;12.18;;;7.20;;
16837;SDS011;19510;54.486;9.046;2023-04-06T12:46:57;13.90;;;8.45;;
16837;SDS011;19510;54.486;9.046;2023-04-06T12:49:22;11.60;;;7.10;;
16837;SDS011;19510;54.486;9.046;2023-04-06T12:51:48;9.82;;;6.63;;
16837;SDS011;19510;54.486;9.046;2023-04-06T12:54:15;12.20;;;6.85;;
16837;SDS011;19510;54.486;9.046;2023-04-06T12:56:41;10.65;;;7.40;;
16837;SDS011;19510;54.486;9.046;2023-04-06T12:59:06;12.68;;;8.00;;
16837;SDS011;19510;54.486;9.046;2023-04-06T13:01:34;16.08;;;8.18;;
16837;SDS011;19510;54.486;9.046;2023-04-06T13:04:00;14.02;;;7.85;;
16837;SDS011;19510;54.486;9.046;2023-04-06T13:06:26;11.55;;;7.72;;
16837;SDS011;19510;54.486;9.046;2023-04-06T13:08:52;13.73;;;7.60;;
16837;SDS011;19510;54.486;9.046;2023-04-06T13:11:18;12.40;;;7.68;;
16837;SDS011;19510;54.486;9.046;2023-04-06T13:13:46;16.65;;;8.65;;
16837;SDS011;19510;54.486;9.046;2023-04-06T13:16:12;14.95;;;8.13;;
16837;SDS011;19510;54.486;9.046;2023-04-06T13:18:38;15.35;;;9.63;;
16837;SDS011;19510;54.486;9.046;2023-04-06T13:21:07;14.63;;;8.93;;
16837;SDS011;19510;54.486;9.046;2023-04-06T13:23:33;16.48;;;9.88;;
16837;SDS011;19510;54.486;9.046;2023-04-06T13:26:04;16.20;;;9.27;;
16837;SDS011;19510;54.486;9.046;2023-04-06T13:28:31;14.65;;;8.57;;
16837;SDS011;19510;54.486;9.046;2023-04-06T13:30:58;13.52;;;8.82;;
16837;SDS011;19510;54.486;9.046;2023-04-06T13:33:25;13.90;;;8.60;;
16837;SDS011;19510;54.486;9.046;2023-04-06T13:35:52;17.17;;;8.50;;
16837;SDS011;19510;54.486;9.046;2023-04-06T13:38:18;15.85;;;8.73;;
16837;SDS011;19510;54.486;9.046;2023-04-06T13:40:44;14.40;;;9.18;;
16837;SDS011;19510;54.486;9.046;2023-04-06T13:43:12;17.73;;;8.85;;
16837;SDS011;19510;54.486;9.046;2023-04-06T13:45:38;12.90;;;8.23;;
16837;SDS011;19510;54.486;9.046;2023-04-06T13:48:04;17.75;;;9.45;;
16837;SDS011;19510;54.486;9.046;2023-04-06T13:50:30;12.98;;;8.20;;
16837;SDS011;19510;54.486;9.046;2023-04-06T13:52:56;14.98;;;8.85;;
16837;SDS011;19510;54.486;9.046;2023-04-06T13:55:24;15.32;;;8.30;;
16837;SDS011;19510;54.486;9.046;2023-04-06T13:57:51;16.75;;;8.13;;
16837;SDS011;19510;54.486;9.046;2023-04-06T14:00:18;13.18;;;8.10;;
16837;SDS011;19510;54.486;9.046;2023-04-06T14:02:44;13.95;;;8.70;;
16837;SDS011;19510;54.486;9.046;2023-04-06T14:05:10;11.35;;;7.28;;
16837;SDS011;19510;54.486;9.046;2023-04-06T14:07:36;14.40;;;7.30;;
16837;SDS011;19510;54.486;9.046;2023-04-06T14:10:02;15.25;;;6.97;;
16837;SDS011;19510;54.486;9.046;2023-04-06T14:12:28;11.25;;;7.05;;
16837;SDS011;19510;54.486;9.046;2023-04-06T14:14:53;10.10;;;6.60;;
16837;SDS011;19510;54.486;9.046;2023-04-06T14:17:19;12.38;;;8.05;;
16837;SDS011;19510;54.486;9.046;2023-04-06T14:19:45;11.68;;;7.55;;
16837;SDS011;19510;54.486;9.046;2023-04-06T14:22:13;13.52;;;6.80;;
16837;SDS011;19510;54.486;9.046;2023-04-06T14:24:39;14.30;;;7.28;;
16837;SDS011;19510;54.486;9.046;2023-04-06T14:27:05;10.65;;;6.60;;
16837;SDS011;19510;54.486;9.046;2023-04-06T14:29:30;9.73;;;5.97;;
16837;SDS011;19510;54.486;9.046;2023-04-06T14:31:56;10.48;;;6.28;;
16837;SDS011;19510;54.486;9.046;2023-04-06T14:34:28;13.45;;;6.30;;
16837;SDS011;19510;54.486;9.046;2023-04-06T14:36:56;13.27;;;6.32;;
16837;SDS011;19510;54.486;9.046;2023-04-06T14:39:22;9.68;;;6.40;;
16837;SDS011;19510;54.486;9.046;2023-04-06T14:41:48;9.48;;;6.32;;
16837;SDS011;19510;54.486;9.046;2023-04-06T14:44:14;12.07;;;7.13;;
16837;SDS011;19510;54.486;9.046;2023-04-06T14:46:41;9.30;;;6.07;;
16837;SDS011;19510;54.486;9.046;2023-04-06T14:49:07;10.68;;;6.10;;
16837;SDS011;19510;54.486;9.046;2023-04-06T14:51:33;10.20;;;6.25;;
16837;SDS011;19510;54.486;9.046;2023-04-06T14:54:00;10.45;;;6.60;;
16837;SDS011;19510;54.486;9.046;2023-04-06T14:56:28;14.30;;;5.93;;
16837;SDS011;19510;54.486;9.046;2023-04-06T14:58:56;10.68;;;6.60;;
16837;SDS011;19510;54.486;9.046;2023-04-06T15:01:23;11.18;;;6.80;;
16837;SDS011;19510;54.486;9.046;2023-04-06T15:03:49;15.45;;;7.03;;
16837;SDS011;19510;54.486;9.046;2023-04-06T15:06:18;9.85;;;6.57;;
16837;SDS011;19510;54.486;9.046;2023-04-06T15:08:45;11.13;;;6.45;;
16837;SDS011;19510;54.486;9.046;2023-04-06T15:11:12;12.50;;;6.70;;
16837;SDS011;19510;54.486;9.046;2023-04-06T15:13:38;12.55;;;6.78;;
16837;SDS011;19510;54.486;9.046;2023-04-06T15:16:05;8.35;;;5.93;;
16837;SDS011;19510;54.486;9.046;2023-04-06T15:18:31;14.30;;;7.13;;
16837;SDS011;19510;54.486;9.046;2023-04-06T15:20:58;11.68;;;7.20;;
16837;SDS011;19510;54.486;9.046;2023-04-06T15:23:24;10.60;;;6.57;;
16837;SDS011;19510;54.486;9.046;2023-04-06T15:25:50;14.88;;;7.50;;
16837;SDS011;19510;54.486;9.046;2023-04-06T15:28:21;11.63;;;7.05;;
16837;SDS011;19510;54.486;9.046;2023-04-06T15:30:46;10.95;;;7.10;;
16837;SDS011;19510;54.486;9.046;2023-04-06T15:33:12;9.30;;;6.50;;
16837;SDS011;19510;54.486;9.046;2023-04-06T15:35:38;11.77;;;7.15;;
16837;SDS011;19510;54.486;9.046;2023-04-06T15:38:06;10.48;;;7.32;;
16837;SDS011;19510;54.486;9.046;2023-04-06T15:40:43;12.43;;;7.72;;
16837;SDS011;19510;54.486;9.046;2023-04-06T15:43:10;10.18;;;6.75;;
16837;SDS011;19510;54.486;9.046;2023-04-06T15:45:39;11.30;;;7.10;;
16837;SDS011;19510;54.486;9.046;2023-04-06T15:48:05;11.65;;;6.47;;
16837;SDS011;19510;54.486;9.046;2023-04-06T15:50:31;12.70;;;8.57;;
16837;SDS011;19510;54.486;9.046;2023-04-06T15:52:57;13.27;;;7.68;;
16837;SDS011;19510;54.486;9.046;2023-04-06T15:55:23;10.98;;;7.13;;
16837;SDS011;19510;54.486;9.046;2023-04-06T15:57:49;11.57;;;7.13;;
16837;SDS011;19510;54.486;9.046;2023-04-06T16:00:15;11.88;;;7.07;;
16837;SDS011;19510;54.486;9.046;2023-04-06T16:02:41;13.25;;;7.55;;
16837;SDS011;19510;54.486;9.046;2023-04-06T16:05:07;11.52;;;7.30;;
16837;SDS011;19510;54.486;9.046;2023-04-06T16:07:35;14.98;;;7.70;;
16837;SDS011;19510;54.486;9.046;2023-04-06T16:10:02;14.07;;;7.30;;
16837;SDS011;19510;54.486;9.046;2023-04-06T16:12:28;12.63;;;7.32;;
16837;SDS011;19510;54.486;9.046;2023-04-06T16:14:57;15.52;;;6.90;;
16837;SDS011;19510;54.486;9.046;2023-04-06T16:17:22;12.85;;;7.13;;
16837;SDS011;19510;54.486;9.046;2023-04-06T16:19:48;10.82;;;6.32;;
16837;SDS011;19510;54.486;9.046;2023-04-06T16:22:14;10.75;;;7.00;;
16837;SDS011;19510;54.486;9.046;2023-04-06T16:24:42;12.00;;;6.88;;
16837;SDS011;19510;54.486;9.046;2023-04-06T16:27:08;10.40;;;6.43;;
16837;SDS011;19510;54.486;9.046;2023-04-06T16:36:22;11.93;;;7.07;;
16837;SDS011;19510;54.486;9.046;2023-04-06T16:38:49;11.80;;;6.72;;
16837;SDS011;19510;54.486;9.046;2023-04-06T16:41:15;10.77;;;6.65;;
16837;SDS011;19510;54.486;9.046;2023-04-06T16:43:41;18.27;;;6.50;;
16837;SDS011;19510;54.486;9.046;2023-04-06T16:46:06;11.00;;;6.82;;
16837;SDS011;19510;54.486;9.046;2023-04-06T16:48:32;10.43;;;6.90;;
16837;SDS011;19510;54.486;9.046;2023-04-06T16:51:02;10.90;;;6.85;;
16837;SDS011;19510;54.486;9.046;2023-04-06T16:53:29;12.38;;;6.97;;
16837;SDS011;19510;54.486;9.046;2023-04-06T16:55:55;10.88;;;7.45;;
16837;SDS011;19510;54.486;9.046;2023-04-06T16:58:21;13.65;;;6.53;;
16837;SDS011;19510;54.486;9.046;2023-04-06T17:00:47;10.80;;;6.90;;
16837;SDS011;19510;54.486;9.046;2023-04-06T17:03:12;12.15;;;6.22;;
16837;SDS011;19510;54.486;9.046;2023-04-06T17:05:38;12.48;;;6.07;;
16837;SDS011;19510;54.486;9.046;2023-04-06T17:08:04;9.52;;;6.10;;
16837;SDS011;19510;54.486;9.046;2023-04-06T17:10:30;10.77;;;5.70;;
16837;SDS011;19510;54.486;9.046;2023-04-06T17:12:55;11.23;;;6.28;;
16837;SDS011;19510;54.486;9.046;2023-04-06T17:15:21;21.65;;;11.85;;
16837;SDS011;19510;54.486;9.046;2023-04-06T17:17:49;14.30;;;8.52;;
16837;SDS011;19510;54.486;9.046;2023-04-06T17:20:16;13.52;;;6.50;;
16837;SDS011;19510;54.486;9.046;2023-04-06T17:22:42;7.85;;;5.63;;
16837;SDS011;19510;54.486;9.046;2023-04-06T17:25:10;9.18;;;5.60;;
16837;SDS011;19510;54.486;9.046;2023-04-06T17:27:42;11.32;;;6.75;;
16837;SDS011;19510;54.486;9.046;2023-04-06T17:30:08;13.55;;;6.47;;
16837;SDS011;19510;54.486;9.046;2023-04-06T17:32:35;10.05;;;5.93;;
16837;SDS011;19510;54.486;9.046;2023-04-06T17:35:01;9.55;;;6.20;;
16837;SDS011;19510;54.486;9.046;2023-04-06T17:37:27;8.90;;;5.78;;
16837;SDS011;19510;54.486;9.046;2023-04-06T17:39:53;9.40;;;5.75;;
16837;SDS011;19510;54.486;9.046;2023-04-06T17:45:41;11.75;;;6.38;;
16837;SDS011;19510;54.486;9.046;2023-04-06T17:48:09;11.48;;;5.90;;
16837;SDS011;19510;54.486;9.046;2023-04-06T17:50:37;11.85;;;6.40;;
16837;SDS011;19510;54.486;9.046;2023-04-06T17:53:06;10.43;;;6.60;;
16837;SDS011;19510;54.486;9.046;2023-04-06T17:55:33;11.95;;;6.40;;
16837;SDS011;19510;54.486;9.046;2023-04-06T17:58:03;10.82;;;6.15;;
16837;SDS011;19510;54.486;9.046;2023-04-06T18:00:29;13.00;;;7.65;;
16837;SDS011;19510;54.486;9.046;2023-04-06T18:02:57;11.95;;;6.40;;
16837;SDS011;19510;54.486;9.046;2023-04-06T18:05:23;12.60;;;7.15;;
16837;SDS011;19510;54.486;9.046;2023-04-06T18:07:50;14.30;;;7.97;;
16837;SDS011;19510;54.486;9.046;2023-04-06T18:10:22;10.57;;;7.03;;
16837;SDS011;19510;54.486;9.046;2023-04-06T18:12:50;14.40;;;7.47;;
16837;SDS011;19510;54.486;9.046;2023-04-06T18:15:16;13.20;;;6.78;;
16837;SDS011;19510;54.486;9.046;2023-04-06T18:17:43;11.52;;;6.72;;
16837;SDS011;19510;54.486;9.046;2023-04-06T18:20:13;11.10;;;6.50;;
16837;SDS011;19510;54.486;9.046;2023-04-06T18:22:39;12.32;;;6.70;;
16837;SDS011;19510;54.486;9.046;2023-04-06T18:25:05;11.68;;;6.43;;
16837;SDS011;19510;54.486;9.046;2023-04-06T18:27:36;15.25;;;6.53;;
16837;SDS011;19510;54.486;9.046;2023-04-06T18:30:05;14.82;;;6.43;;
16837;SDS011;19510;54.486;9.046;2023-04-06T18:35:58;12.27;;;6.72;;
16837;SDS011;19510;54.486;9.046;2023-04-06T18:38:24;12.63;;;7.20;;
16837;SDS011;19510;54.486;9.046;2023-04-06T18:40:50;12.95;;;7.15;;
16837;SDS011;19510;54.486;9.046;2023-04-06T18:43:18;14.13;;;7.20;;
16837;SDS011;19510;54.486;9.046;2023-04-06T18:45:44;20.50;;;7.70;;
16837;SDS011;19510;54.486;9.046;2023-04-06T18:48:10;16.67;;;7.80;;
16837;SDS011;19510;54.486;9.046;2023-04-06T18:50:37;14.35;;;7.53;;
16837;SDS011;19510;54.486;9.046;2023-04-06T18:53:03;14.70;;;7.57;;
16837;SDS011;19510;54.486;9.046;2023-04-06T18:55:32;13.40;;;7.22;;
16837;SDS011;19510;54.486;9.046;2023-04-06T18:57:57;17.35;;;7.93;;
16837;SDS011;19510;54.486;9.046;2023-04-06T19:00:23;12.88;;;7.65;;
16837;SDS011;19510;54.486;9.046;2023-04-06T19:02:54;14.68;;;7.78;;
16837;SDS011;19510;54.486;9.046;2023-04-06T19:05:20;11.98;;;6.97;;
16837;SDS011;19510;54.486;9.046;2023-04-06T19:07:46;13.68;;;7.95;;
16837;SDS011;19510;54.486;9.046;2023-04-06T19:10:16;13.60;;;7.35;;
16837;SDS011;19510;54.486;9.046;2023-04-06T19:12:41;13.10;;;7.57;;
16837;SDS011;19510;54.486;9.046;2023-04-06T19:15:07;22.88;;;9.88;;
16837;SDS011;19510;54.486;9.046;2023-04-06T19:17:34;13.05;;;7.43;;
16837;SDS011;19510;54.486;9.046;2023-04-06T19:20:02;15.15;;;7.85;;
16837;SDS011;19510;54.486;9.046;2023-04-06T19:22:28;28.50;;;12.85;;
16837;SDS011;19510;54.486;9.046;2023-04-06T19:24:56;15.40;;;8.32;;
16837;SDS011;19510;54.486;9.046;2023-04-06T19:27:21;16.02;;;8.57;;
16837;SDS011;19510;54.486;9.046;2023-04-06T19:29:47;16.27;;;7.97;;
16837;SDS011;19510;54.486;9.046;2023-04-06T19:32:15;12.55;;;7.95;;
16837;SDS011;19510;54.486;9.046;2023-04-06T19:34:41;14.52;;;7.68;;
16837;SDS011;19510;54.486;9.046;2023-04-06T19:37:12;13.70;;;8.00;;
16837;SDS011;19510;54.486;9.046;2023-04-06T19:39:37;11.38;;;7.18;;